createdAt,value
2023-05-05T00:12:25.632Z,4.95
2023-05-05T00:27:25.766Z,4.65
2023-05-05T00:42:25.996Z,4.77
2023-05-05T00:57:25.623Z,5.05
2023-05-05T01:12:25.739Z,5.19
2023-05-05T01:27:26.035Z,4.84
2023-05-05T01:42:25.346Z,5.3
2023-05-05T01:57:25.493Z,5.25
2023-05-05T02:12:25.832Z,4.93
2023-05-05T02:27:25.921Z,4.91
2023-05-05T02:42:25.276Z,5.14
2023-05-05T02:57:25.909Z,5.04
2023-05-05T03:12:25.293Z,5.38
2023-05-05T03:27:26.004Z,9.53
2023-05-05T03:42:25.878Z,13.19
2023-05-05T03:57:25.213Z,6.91
2023-05-05T04:27:25.428Z,5.53
2023-05-05T04:42:25.540Z,6.09
2023-05-05T04:57:26.065Z,5.21
2023-05-05T05:12:25.374Z,26.05
2023-05-05T05:27:25.561Z,15.09
2023-05-05T05:42:25.349Z,7.96
2023-05-05T05:57:25.168Z,6.72
2023-05-05T06:12:26.189Z,6.81
2023-05-05T06:27:25.255Z,6.64
2023-05-05T06:42:25.290Z,6.18
2023-05-05T06:57:25.968Z,6.39
2023-05-05T07:12:25.605Z,5.51
2023-05-05T07:27:25.582Z,16.19
2023-05-05T07:42:25.801Z,5.11
2023-05-05T07:57:25.352Z,4.63
2023-05-05T08:12:25.719Z,4.56
2023-05-05T08:27:25.295Z,4.62
2023-05-05T08:42:36.006Z,5.21
2023-05-05T08:57:25.721Z,9.73
2023-05-05T09:12:25.772Z,4.92
2023-05-05T09:27:25.769Z,4.87
2023-05-05T09:42:26.088Z,4.5
2023-05-05T09:57:25.425Z,4.46
2023-05-05T10:12:25.650Z,4.76
2023-05-05T10:27:25.833Z,4.05
2023-05-05T10:42:25.998Z,4
2023-05-05T10:57:25.919Z,4.1
2023-05-05T11:12:25.782Z,3.81
2023-05-05T11:27:25.887Z,4.13
2023-05-05T11:42:25.951Z,4.74
2023-05-05T11:57:26.091Z,6.07
2023-05-05T12:12:25.776Z,3.79
2023-05-05T12:27:25.457Z,3.73
2023-05-05T12:42:25.544Z,3.57
2023-05-05T12:57:25.803Z,3.42
2023-05-05T13:12:25.361Z,3.68
2023-05-05T13:27:25.875Z,3.65
2023-05-05T13:42:25.600Z,3.74
2023-05-05T13:57:25.316Z,3.42
2023-05-05T14:12:26.114Z,3.67
2023-05-05T14:27:25.657Z,3.46
2023-05-05T14:42:25.581Z,3.65
2023-05-05T14:57:25.562Z,3.71
2023-05-05T15:12:25.741Z,3.99
2023-05-05T15:27:25.779Z,4.24
2023-05-05T16:12:25.531Z,5.57
2023-05-05T16:27:25.786Z,6.8
2023-05-05T16:42:25.591Z,7.77
2023-05-05T16:57:25.413Z,7.8
2023-05-05T17:12:25.261Z,6.67
2023-05-05T17:27:25.922Z,7.24
2023-05-05T17:42:25.612Z,5.22
2023-05-05T17:57:25.315Z,5.86
2023-05-05T18:12:25.374Z,5.44
2023-05-05T18:42:25.987Z,0.58
2023-05-05T18:57:25.972Z,2.74
2023-05-05T19:12:25.783Z,1.31
2023-05-05T19:27:25.798Z,0.77
2023-05-05T19:42:25.788Z,0.64
2023-05-05T19:57:25.741Z,1.19
2023-05-05T20:12:25.815Z,1.22
2023-05-05T20:27:26.707Z,0.03
2023-05-05T20:42:25.480Z,0.03
2023-05-05T20:57:25.482Z,0.12
2023-05-05T21:12:25.691Z,0.09
2023-05-05T21:27:25.246Z,0.09
2023-05-05T21:42:25.397Z,0.52
2023-05-05T21:57:25.311Z,0.31
2023-05-05T22:12:25.313Z,0.01
2023-05-05T22:27:25.413Z,0
2023-05-05T22:42:25.471Z,0.07
2023-05-05T22:57:25.565Z,0.01
2023-05-05T23:12:25.671Z,0.75
2023-05-05T23:27:25.814Z,1.85
2023-05-05T23:42:25.988Z,0.08
2023-05-05T23:57:25.481Z,0.67
